Time;durP1;ratioP1;P1;durP2;ratioP2;P2;SDS_P1;SDS_P2;PMS_P1;PMS_P2;Temp;Humidity;BMP_temperature;BMP_pressure;BME280_temperature;BME280_humidity;BME280_pressure;Samples;Min_cycle;Max_cycle;Signal;HPM_P1;HPM_P2
2021/08/02 00:02:20;;;;;;;4.93;3.70;;;15.80;99.90;;;;;;5070882;28;20468;-46
2021/08/02 00:04:54;;;;;;;8.45;4.25;;;15.80;99.90;;;;;;5070322;28;20494;-47
2021/08/02 00:07:21;;;;;;;5.93;3.47;;;15.70;99.90;;;;;;5070841;28;20032;-46
2021/08/02 00:09:49;;;;;;;4.40;3.05;;;15.70;99.90;;;;;;5069523;28;20027;-47
2021/08/02 00:12:26;;;;;;;4.68;3.45;;;15.70;99.90;;;;;;5070549;28;20029;-47
2021/08/02 00:14:53;;;;;;;4.40;3.40;;;15.70;99.90;;;;;;5068707;28;20168;-47
2021/08/02 00:17:20;;;;;;;5.03;3.42;;;15.70;99.90;;;;;;5070654;28;20079;-47
2021/08/02 00:19:45;;;;;;;11.63;3.45;;;15.70;99.90;;;;;;5070930;28;20033;-47
2021/08/02 00:22:11;;;;;;;5.03;3.83;;;15.70;99.90;;;;;;5070499;28;20037;-47
2021/08/02 00:24:37;;;;;;;4.35;3.50;;;15.70;99.90;;;;;;5070041;28;20375;-47
2021/08/02 00:27:02;;;;;;;5.47;3.38;;;15.70;99.90;;;;;;5069199;28;20239;-49
2021/08/02 00:29:30;;;;;;;3.55;3.17;;;15.60;99.90;;;;;;5052566;28;20025;-47
2021/08/02 00:31:56;;;;;;;3.53;3.05;;;15.60;99.90;;;;;;5070520;28;20052;-47
2021/08/02 00:34:21;;;;;;;4.40;3.50;;;15.60;99.90;;;;;;5069636;28;20299;-46
2021/08/02 00:36:55;;;;;;;3.30;2.95;;;15.60;99.90;;;;;;5070431;28;20032;-47
2021/08/02 00:39:45;;;;;;;7.72;3.78;;;15.60;99.90;;;;;;5069830;28;20470;-48
2021/08/02 00:42:20;;;;;;;3.30;3.00;;;15.60;99.90;;;;;;5070251;28;20331;-46
2021/08/02 00:44:45;;;;;;;4.68;2.88;;;15.60;99.90;;;;;;5069385;28;20029;-45
2021/08/02 00:47:21;;;;;;;7.28;3.28;;;15.60;99.90;;;;;;5070101;28;20091;-46
2021/08/02 00:50:02;;;;;;;6.95;3.28;;;15.60;99.90;;;;;;5068723;28;20202;-47
2021/08/02 00:52:30;;;;;;;3.45;2.70;;;15.60;99.90;;;;;;5069888;28;20070;-47
2021/08/02 00:54:59;;;;;;;4.05;3.13;;;15.60;99.90;;;;;;5069610;28;20112;-46
2021/08/02 00:57:30;;;;;;;6.82;3.85;;;15.60;99.90;;;;;;5069643;28;20115;-47
2021/08/02 00:59:57;;;;;;;5.25;2.45;;;15.50;99.90;;;;;;5069873;28;20027;-46
2021/08/02 01:02:25;;;;;;;3.20;2.70;;;15.50;99.90;;;;;;5069723;28;20142;-46
2021/08/02 01:04:52;;;;;;;4.78;2.70;;;15.40;99.90;;;;;;5067862;28;20375;-46
2021/08/02 01:07:19;;;;;;;4.82;2.60;;;15.40;99.90;;;;;;5069566;28;20036;-48
2021/08/02 01:09:47;;;;;;;9.65;2.70;;;15.40;99.90;;;;;;5068307;28;20104;-46
2021/08/02 01:12:13;;;;;;;2.70;2.28;;;15.30;99.90;;;;;;5069621;28;20036;-47
2021/08/02 01:14:39;;;;;;;4.07;2.53;;;15.30;99.90;;;;;;5068787;28;20046;-46
2021/08/02 01:17:07;;;;;;;3.65;2.70;;;15.20;99.90;;;;;;5069483;28;20025;-46
2021/08/02 01:19:33;;;;;;;4.28;3.03;;;15.20;99.90;;;;;;5068055;28;20027;-46
2021/08/02 01:22:00;;;;;;;5.47;2.97;;;15.20;99.90;;;;;;5069468;28;20028;-45
2021/08/02 01:24:26;;;;;;;4.75;3.00;;;15.20;99.90;;;;;;5068496;28;20389;-47
2021/08/02 01:26:58;;;;;;;6.28;2.75;;;15.10;99.90;;;;;;5069226;28;20175;-46
2021/08/02 01:30:01;;;;;;;3.80;2.80;;;15.10;99.90;;;;;;5069168;28;20054;-48
2021/08/02 01:32:27;;;;;;;4.22;2.92;;;15.10;99.90;;;;;;5069192;28;20055;-46
2021/08/02 01:34:53;;;;;;;4.82;2.65;;;15.10;99.90;;;;;;5068426;28;20066;-46
2021/08/02 01:37:18;;;;;;;6.60;3.60;;;15.00;99.90;;;;;;5069329;28;20336;-46
2021/08/02 01:39:51;;;;;;;3.83;2.40;;;15.00;99.90;;;;;;5069140;28;20090;-46
2021/08/02 01:42:16;;;;;;;4.35;2.75;;;14.90;99.90;;;;;;5069016;28;20271;-47
2021/08/02 01:44:42;;;;;;;7.05;2.88;;;14.90;99.90;;;;;;5068206;28;20032;-46
2021/08/02 01:47:12;;;;;;;5.63;2.97;;;14.90;99.90;;;;;;5068889;28;20033;-47
2021/08/02 01:50:03;;;;;;;6.93;3.13;;;14.90;99.90;;;;;;5068648;28;20025;-47
2021/08/02 01:52:41;;;;;;;6.57;3.70;;;14.90;99.90;;;;;;5068168;28;20045;-46
2021/08/02 01:55:17;;;;;;;6.65;3.90;;;14.90;99.90;;;;;;5066968;28;20513;-47
2021/08/02 01:57:50;;;;;;;8.63;3.28;;;14.80;99.90;;;;;;5068572;28;20099;-47
2021/08/02 02:00:17;;;;;;;4.78;3.20;;;14.80;99.90;;;;;;5068719;28;20013;-46
2021/08/02 02:02:53;;;;;;;5.85;3.33;;;14.80;99.90;;;;;;5067259;28;20028;-46
2021/08/02 02:05:21;;;;;;;6.10;3.95;;;14.70;99.90;;;;;;5068005;28;20059;-47
2021/08/02 02:07:48;;;;;;;7.30;3.70;;;14.70;99.90;;;;;;5068749;28;20085;-46
2021/08/02 02:10:15;;;;;;;7.63;4.07;;;14.70;99.90;;;;;;5068512;28;20024;-46
2021/08/02 02:12:43;;;;;;;5.07;3.92;;;14.70;99.90;;;;;;5068368;28;20028;-46
2021/08/02 02:15:09;;;;;;;4.07;3.60;;;14.70;99.90;;;;;;5067831;28;20040;-47
2021/08/02 02:17:37;;;;;;;5.13;4.20;;;14.70;99.90;;;;;;5068529;28;20021;-46
2021/08/02 02:20:04;;;;;;;6.88;3.97;;;14.70;99.90;;;;;;5068615;28;20035;-46
2021/08/02 02:22:31;;;;;;;7.07;4.45;;;14.60;99.90;;;;;;5068326;28;20032;-48
2021/08/02 02:24:58;;;;;;;6.47;4.30;;;14.60;99.90;;;;;;5067662;28;20035;-48
2021/08/02 02:27:24;;;;;;;7.68;4.18;;;14.60;99.90;;;;;;5068344;28;20489;-47
2021/08/02 02:29:50;;;;;;;5.18;4.00;;;14.60;99.90;;;;;;5068468;28;20033;-46
2021/08/02 02:32:17;;;;;;;9.55;5.25;;;14.50;99.90;;;;;;5068277;28;20471;-46
2021/08/02 02:34:45;;;;;;;5.68;4.38;;;14.50;99.90;;;;;;5067434;28;20081;-47
2021/08/02 02:37:11;;;;;;;5.88;4.25;;;14.50;99.90;;;;;;5068140;28;20023;-46
2021/08/02 02:39:37;;;;;;;6.05;4.50;;;14.40;99.90;;;;;;5068318;28;20111;-47
2021/08/02 02:42:03;;;;;;;8.23;4.85;;;14.40;99.90;;;;;;5068629;28;20100;-46
2021/08/02 02:44:30;;;;;;;7.35;4.40;;;14.40;99.90;;;;;;5067631;28;20032;-46
2021/08/02 02:46:56;;;;;;;6.75;5.20;;;14.40;99.90;;;;;;5068351;28;20063;-46
2021/08/02 02:49:22;;;;;;;8.80;4.90;;;14.40;99.90;;;;;;5068429;28;20020;-46
2021/08/02 02:51:49;;;;;;;5.55;4.75;;;14.30;99.90;;;;;;5068303;28;20433;-46
2021/08/02 02:54:18;;;;;;;7.10;4.65;;;14.30;99.90;;;;;;5066247;28;20032;-46
2021/08/02 02:56:44;;;;;;;7.13;5.10;;;14.30;99.90;;;;;;5068484;28;20059;-46
2021/08/02 02:59:09;;;;;;;7.68;4.57;;;14.30;99.90;;;;;;5068117;28;20029;-47
2021/08/02 03:01:39;;;;;;;7.38;4.30;;;14.30;99.90;;;;;;5068559;28;20063;-48
2021/08/02 03:04:07;;;;;;;6.47;4.35;;;14.30;99.90;;;;;;5071753;28;20024;-47
2021/08/02 03:06:33;;;;;;;6.60;4.65;;;14.20;99.90;;;;;;5071839;28;20031;-49
2021/08/02 03:09:00;;;;;;;5.55;4.60;;;14.20;99.90;;;;;;5071896;28;20541;-47
2021/08/02 03:11:27;;;;;;;8.30;5.25;;;14.20;99.90;;;;;;5071651;28;20514;-46
2021/08/02 03:13:53;;;;;;;8.20;4.80;;;14.20;99.90;;;;;;5071149;28;20328;-50
2021/08/02 03:16:21;;;;;;;5.53;4.45;;;14.20;99.90;;;;;;5071775;28;20401;-47
2021/08/02 03:18:47;;;;;;;8.43;4.90;;;14.10;99.90;;;;;;5071711;28;20025;-47
2021/08/02 03:21:15;;;;;;;9.55;4.70;;;14.10;99.90;;;;;;5071595;28;20017;-47
2021/08/02 03:23:49;;;;;;;8.07;5.18;;;14.10;99.90;;;;;;5069485;28;20474;-48
2021/08/02 03:26:22;;;;;;;11.38;5.57;;;14.10;99.90;;;;;;5071593;28;20278;-48
2021/08/02 03:29:14;;;;;;;7.00;5.00;;;14.00;99.90;;;;;;5072055;28;20024;-47
2021/08/02 03:31:45;;;;;;;9.75;5.10;;;14.00;99.90;;;;;;5061852;28;20556;-46
2021/08/02 03:34:17;;;;;;;10.02;5.28;;;14.00;99.90;;;;;;5070991;28;20036;-48
2021/08/02 03:36:44;;;;;;;11.00;6.88;;;13.90;99.90;;;;;;5071408;28;20036;-49
2021/08/02 03:39:11;;;;;;;11.32;5.65;;;13.90;99.90;;;;;;5071491;28;20047;-46
2021/08/02 03:41:41;;;;;;;11.27;6.47;;;13.90;99.90;;;;;;5071251;28;20021;-46
2021/08/02 03:44:10;;;;;;;9.80;6.18;;;13.90;99.90;;;;;;5070619;28;20020;-47
2021/08/02 03:46:35;;;;;;;10.27;6.05;;;13.90;99.90;;;;;;5071263;28;20027;-48
2021/08/02 03:49:01;;;;;;;11.60;6.28;;;13.80;99.90;;;;;;5071197;28;20020;-46
2021/08/02 03:51:34;;;;;;;15.80;7.30;;;13.80;99.90;;;;;;5071094;28;20425;-45
2021/08/02 03:53:59;;;;;;;10.18;6.82;;;13.80;99.90;;;;;;5070376;28;20033;-46
2021/08/02 03:56:26;;;;;;;9.48;6.82;;;13.80;99.90;;;;;;5070908;28;20478;-46
2021/08/02 03:58:51;;;;;;;10.07;7.00;;;13.80;99.90;;;;;;5071199;28;20028;-46
2021/08/02 04:01:16;;;;;;;12.93;7.30;;;13.80;99.90;;;;;;5071004;28;20530;-46
2021/08/02 04:03:42;;;;;;;11.98;7.28;;;13.70;99.90;;;;;;5068879;28;20036;-46
2021/08/02 04:06:08;;;;;;;17.08;8.65;;;13.70;99.90;;;;;;5071119;28;20504;-47
2021/08/02 04:08:33;;;;;;;8.38;6.90;;;13.70;99.90;;;;;;5071156;28;20158;-46
2021/08/02 04:10:59;;;;;;;10.52;6.55;;;13.70;99.90;;;;;;5070913;28;20029;-47
2021/08/02 04:13:24;;;;;;;15.25;6.65;;;13.70;99.90;;;;;;5069047;28;20029;-48
2021/08/02 04:15:50;;;;;;;9.85;6.30;;;13.70;99.90;;;;;;5070882;28;20024;-47
2021/08/02 04:18:16;;;;;;;11.00;5.40;;;13.70;99.90;;;;;;5070660;28;20024;-46
2021/08/02 04:20:43;;;;;;;10.02;6.05;;;13.70;99.90;;;;;;5070680;28;20028;-48
2021/08/02 04:23:09;;;;;;;10.02;5.15;;;13.70;99.90;;;;;;5070620;28;20025;-48
2021/08/02 04:25:35;;;;;;;8.75;5.47;;;13.60;99.90;;;;;;5069864;28;20174;-46
2021/08/02 04:28:00;;;;;;;14.30;5.70;;;13.60;99.90;;;;;;5070478;28;20573;-46
2021/08/02 04:30:25;;;;;;;10.50;5.13;;;13.60;99.90;;;;;;5070472;28;20051;-46
2021/08/02 04:32:51;;;;;;;12.73;5.65;;;13.60;99.90;;;;;;5070185;28;21005;-47
2021/08/02 04:35:16;;;;;;;8.10;4.72;;;13.60;99.90;;;;;;5069704;28;20027;-45
2021/08/02 04:37:42;;;;;;;12.07;5.82;;;13.60;99.90;;;;;;5070668;28;20412;-46
2021/08/02 04:40:08;;;;;;;7.38;4.82;;;13.60;99.90;;;;;;5068734;28;20025;-46
2021/08/02 04:42:37;;;;;;;10.02;5.00;;;13.60;99.90;;;;;;5070389;28;20485;-46
2021/08/02 04:45:06;;;;;;;8.40;4.60;;;13.60;99.90;;;;;;5069868;28;20033;-48
2021/08/02 04:47:32;;;;;;;7.13;4.65;;;13.60;99.90;;;;;;5070476;28;20029;-46
2021/08/02 04:49:58;;;;;;;7.50;5.40;;;13.60;99.90;;;;;;5070441;28;20032;-46
2021/08/02 04:52:24;;;;;;;8.00;4.30;;;13.60;99.90;;;;;;5070015;28;20040;-47
2021/08/02 04:54:49;;;;;;;7.55;4.68;;;13.60;99.90;;;;;;5069120;28;20031;-48
2021/08/02 04:57:15;;;;;;;6.82;4.55;;;13.60;99.90;;;;;;5069924;28;20020;-46
2021/08/02 04:59:42;;;;;;;10.80;4.43;;;13.70;99.90;;;;;;5069855;28;20109;-46
2021/08/02 05:02:08;;;;;;;4.32;3.63;;;13.70;99.90;;;;;;5069722;28;20024;-46
2021/08/02 05:04:34;;;;;;;10.45;4.30;;;13.70;99.90;;;;;;5069099;28;20071;-46
2021/08/02 05:06:59;;;;;;;6.15;3.70;;;13.70;99.90;;;;;;5069690;28;20231;-47
2021/08/02 05:09:24;;;;;;;11.07;4.32;;;13.80;99.90;;;;;;5069395;28;20025;-47
2021/08/02 05:11:53;;;;;;;5.35;3.35;;;13.80;99.90;;;;;;5069406;28;20040;-46
2021/08/02 05:14:18;;;;;;;9.30;4.82;;;13.90;99.90;;;;;;5068706;28;20024;-46
2021/08/02 05:16:44;;;;;;;7.30;3.67;;;13.90;99.90;;;;;;5069372;28;20516;-46
2021/08/02 05:19:11;;;;;;;7.57;3.95;;;13.90;99.90;;;;;;5068221;28;20031;-45
2021/08/02 05:21:37;;;;;;;10.43;3.70;;;13.90;99.90;;;;;;5068131;28;20017;-47
2021/08/02 05:24:02;;;;;;;6.82;4.03;;;14.00;99.90;;;;;;5068708;28;20055;-46
2021/08/02 05:26:28;;;;;;;16.50;4.82;;;14.00;99.90;;;;;;5069413;28;20078;-46
2021/08/02 05:28:53;;;;;;;7.97;4.20;;;14.10;99.90;;;;;;5069326;28;20039;-46
2021/08/02 05:31:19;;;;;;;8.10;4.10;;;14.10;99.90;;;;;;5068059;28;20021;-47
2021/08/02 05:33:44;;;;;;;6.32;3.58;;;14.00;99.90;;;;;;5068853;28;20020;-49
2021/08/02 05:36:10;;;;;;;10.80;4.35;;;14.00;99.90;;;;;;5069234;28;20029;-47
2021/08/02 05:38:36;;;;;;;7.25;3.63;;;14.10;99.90;;;;;;5069065;28;20039;-47
2021/08/02 05:41:01;;;;;;;8.35;3.05;;;14.10;99.90;;;;;;5069225;28;20528;-46
2021/08/02 05:43:27;;;;;;;6.28;3.15;;;14.10;99.90;;;;;;5068509;28;20036;-49
2021/08/02 05:45:53;;;;;;;10.25;3.92;;;14.20;99.90;;;;;;5069230;28;20032;-46
2021/08/02 05:48:18;;;;;;;8.23;3.13;;;14.20;99.90;;;;;;5068940;28;20482;-47
2021/08/02 05:50:44;;;;;;;4.07;3.17;;;14.30;99.90;;;;;;5068979;28;20029;-49
2021/08/02 05:53:09;;;;;;;6.95;3.25;;;14.30;99.90;;;;;;5068772;28;20281;-46
2021/08/02 05:55:35;;;;;;;13.48;3.88;;;14.30;99.90;;;;;;5068686;28;20078;-49
2021/08/02 05:58:00;;;;;;;6.18;3.97;;;14.40;99.90;;;;;;5069037;28;20039;-48
2021/08/02 06:00:26;;;;;;;5.75;2.65;;;14.40;99.90;;;;;;5068935;28;20473;-47
2021/08/02 06:02:51;;;;;;;8.60;2.95;;;14.40;99.90;;;;;;5068745;28;20470;-48
2021/08/02 06:05:17;;;;;;;11.00;3.67;;;14.50;99.90;;;;;;5068089;28;20263;-49
2021/08/02 06:07:43;;;;;;;8.02;2.72;;;14.50;99.90;;;;;;5068589;28;20028;-46
2021/08/02 06:10:10;;;;;;;8.57;2.72;;;14.60;99.90;;;;;;5067393;28;20025;-46
2021/08/02 06:12:36;;;;;;;7.70;2.80;;;14.60;99.90;;;;;;5068510;28;20390;-47
2021/08/02 06:15:01;;;;;;;4.85;2.50;;;14.70;99.90;;;;;;5067732;28;20024;-47
2021/08/02 06:17:27;;;;;;;4.70;2.58;;;14.70;99.90;;;;;;5067411;28;20108;-47
2021/08/02 06:19:52;;;;;;;10.10;2.53;;;14.80;99.90;;;;;;5068592;28;20413;-46
2021/08/02 06:22:17;;;;;;;6.78;2.25;;;14.80;99.90;;;;;;5068431;28;20087;-46
2021/08/02 06:24:43;;;;;;;6.43;2.33;;;14.80;99.90;;;;;;5068100;28;20031;-46
2021/08/02 06:27:09;;;;;;;5.93;2.25;;;14.90;99.90;;;;;;5068593;28;20024;-47
2021/08/02 06:29:35;;;;;;;11.23;2.83;;;14.90;99.90;;;;;;5068551;28;20020;-48
2021/08/02 06:32:02;;;;;;;7.47;2.72;;;15.00;99.90;;;;;;5068803;28;20523;-46
2021/08/02 06:34:28;;;;;;;4.25;2.20;;;15.00;99.90;;;;;;5067873;28;20398;-46
2021/08/02 06:36:53;;;;;;;11.88;2.83;;;15.10;99.90;;;;;;5067809;28;20032;-46
2021/08/02 06:39:19;;;;;;;5.68;2.20;;;15.10;99.90;;;;;;5068653;28;20285;-46
2021/08/02 06:41:44;;;;;;;4.90;2.28;;;15.20;99.90;;;;;;5068441;28;20021;-47
2021/08/02 06:44:10;;;;;;;6.25;2.28;;;15.30;99.90;;;;;;5067810;28;20051;-46
2021/08/02 06:46:35;;;;;;;5.53;2.20;;;15.40;99.90;;;;;;5068336;28;20024;-46
2021/08/02 06:49:01;;;;;;;5.78;2.13;;;15.50;99.90;;;;;;5068215;28;20280;-49
2021/08/02 06:51:26;;;;;;;7.38;2.20;;;15.60;99.90;;;;;;5068158;28;20028;-46
2021/08/02 06:53:52;;;;;;;19.98;2.67;;;15.70;99.90;;;;;;5067497;28;20111;-46
2021/08/02 06:56:17;;;;;;;5.03;2.50;;;15.80;99.90;;;;;;5068193;28;20016;-46
2021/08/02 06:58:42;;;;;;;12.23;2.47;;;15.80;99.90;;;;;;5068212;28;20058;-46
2021/08/02 07:01:08;;;;;;;6.53;2.45;;;15.80;99.90;;;;;;5066633;28;20352;-46
2021/08/02 07:03:33;;;;;;;4.85;2.15;;;15.90;99.90;;;;;;5067407;28;20059;-48
2021/08/02 07:05:59;;;;;;;4.45;2.10;;;16.00;99.90;;;;;;5068277;28;20028;-46
2021/08/02 07:08:24;;;;;;;3.95;1.63;;;16.10;99.90;;;;;;5068077;28;20066;-45
2021/08/02 07:10:50;;;;;;;6.57;2.42;;;16.20;99.90;;;;;;5068056;28;20113;-46
2021/08/02 07:13:15;;;;;;;6.38;2.20;;;16.30;99.90;;;;;;5067352;28;20044;-47
2021/08/02 07:15:42;;;;;;;4.95;2.40;;;16.40;99.90;;;;;;5067581;28;20025;-48
2021/08/02 07:18:08;;;;;;;8.32;1.90;;;16.40;99.90;;;;;;5066759;28;20494;-53
2021/08/02 07:20:34;;;;;;;6.22;2.10;;;16.50;99.90;;;;;;5066960;28;20032;-46
2021/08/02 07:23:00;;;;;;;5.10;1.85;;;16.70;99.90;;;;;;5067888;28;20065;-47
2021/08/02 07:25:25;;;;;;;4.43;1.70;;;16.80;99.90;;;;;;5067247;28;20017;-47
2021/08/02 07:27:51;;;;;;;10.98;2.40;;;17.00;99.90;;;;;;5067800;28;20056;-47
2021/08/02 07:30:16;;;;;;;6.95;2.63;;;17.00;99.90;;;;;;5067829;28;20016;-47
2021/08/02 07:32:42;;;;;;;4.65;1.95;;;17.20;99.90;;;;;;5066474;28;20021;-47
2021/08/02 07:35:08;;;;;;;7.70;1.98;;;17.20;99.90;;;;;;5066950;28;20028;-48
2021/08/02 07:37:33;;;;;;;4.18;1.60;;;17.30;99.90;;;;;;5067774;28;20463;-46
2021/08/02 07:39:59;;;;;;;4.65;1.80;;;17.40;99.90;;;;;;5067784;28;20389;-46
2021/08/02 07:42:25;;;;;;;8.02;2.00;;;17.40;99.90;;;;;;5067786;28;20070;-47
2021/08/02 07:44:51;;;;;;;5.35;1.50;;;17.50;99.90;;;;;;5067012;28;20024;-47
2021/08/02 07:47:16;;;;;;;6.25;1.73;;;17.50;99.90;;;;;;5067590;28;20031;-48
2021/08/02 07:49:42;;;;;;;5.63;1.85;;;17.60;99.90;;;;;;5069723;28;20466;-47
2021/08/02 07:52:07;;;;;;;3.92;1.30;;;17.70;99.90;;;;;;5071174;28;20078;-47
2021/08/02 07:54:33;;;;;;;4.88;1.70;;;17.60;99.90;;;;;;5070490;28;20450;-47
2021/08/02 07:56:58;;;;;;;7.05;1.65;;;17.60;99.90;;;;;;5071239;28;20027;-46
2021/08/02 07:59:24;;;;;;;8.80;1.92;;;17.70;99.90;;;;;;5070921;28;20029;-47
2021/08/02 08:01:49;;;;;;;5.22;1.70;;;17.80;99.90;;;;;;5069727;28;20021;-46
2021/08/02 08:04:15;;;;;;;6.85;1.75;;;17.90;99.90;;;;;;5070089;28;20028;-47
2021/08/02 08:06:42;;;;;;;7.03;1.58;;;17.90;99.90;;;;;;5070743;28;20027;-47
2021/08/02 08:09:08;;;;;;;4.13;1.65;;;18.00;99.90;;;;;;5070773;28;20108;-47
2021/08/02 08:11:33;;;;;;;6.60;1.55;;;18.10;99.90;;;;;;5069363;28;20115;-46
2021/08/02 08:13:59;;;;;;;2.20;1.20;;;18.20;99.90;;;;;;5069929;28;20025;-47
2021/08/02 08:16:24;;;;;;;3.33;1.48;;;18.40;99.90;;;;;;5069308;28;20017;-47
2021/08/02 08:18:50;;;;;;;6.40;2.45;;;18.80;99.90;;;;;;5070544;28;20028;-46
2021/08/02 08:21:15;;;;;;;6.32;1.42;;;19.10;99.90;;;;;;5070520;28;20467;-47
2021/08/02 08:23:41;;;;;;;5.13;1.52;;;19.30;99.90;;;;;;5069723;28;20066;-48
2021/08/02 08:26:06;;;;;;;4.10;2.00;;;19.40;99.90;;;;;;5070577;28;20023;-47
2021/08/02 08:28:32;;;;;;;4.38;1.45;;;19.30;99.90;;;;;;5070708;28;20040;-47
2021/08/02 08:30:57;;;;;;;3.88;1.30;;;19.10;99.90;;;;;;5070317;28;20025;-46
2021/08/02 08:33:28;;;;;;;2.60;1.50;;;18.90;99.90;;;;;;5069566;28;20032;-47
2021/08/02 08:35:57;;;;;;;5.47;1.65;;;18.70;99.90;;;;;;5070354;28;20188;-47
2021/08/02 08:38:23;;;;;;;3.97;1.30;;;18.50;99.90;;;;;;5070790;28;20024;-47
2021/08/02 08:40:48;;;;;;;9.07;1.50;;;18.80;99.90;;;;;;5070735;28;20168;-46
2021/08/02 08:43:17;;;;;;;2.15;1.30;;;19.50;99.90;;;;;;5069790;28;20462;-48
2021/08/02 08:45:43;;;;;;;3.92;1.33;;;20.80;99.60;;;;;;5068657;28;20398;-48
2021/08/02 08:48:08;;;;;;;4.10;1.20;;;22.60;95.20;;;;;;5068854;28;20047;-48
2021/08/02 08:50:41;;;;;;;4.28;1.35;;;23.80;91.60;;;;;;5070459;28;20042;-48
2021/08/02 08:53:10;;;;;;;3.55;1.38;;;25.20;86.80;;;;;;5070200;28;20028;-48
2021/08/02 08:55:39;;;;;;;3.85;1.48;;;26.20;81.00;;;;;;5069604;28;20082;-47
2021/08/02 08:58:05;;;;;;;2.47;1.25;;;26.20;75.10;;;;;;5070457;28;20120;-47
2021/08/02 09:00:30;;;;;;;8.65;1.65;;;25.70;72.80;;;;;;5069790;28;20522;-47
2021/08/02 09:02:56;;;;;;;4.40;1.20;;;24.40;75.00;;;;;;5069960;28;20025;-47
2021/08/02 09:05:33;;;;;;;4.28;1.75;;;24.20;77.80;;;;;;5069214;28;20074;-47
2021/08/02 09:07:58;;;;;;;2.38;1.13;;;23.50;78.60;;;;;;5070212;28;20035;-47
2021/08/02 09:10:24;;;;;;;4.88;1.30;;;22.80;80.00;;;;;;5068391;28;20036;-47
2021/08/02 09:12:55;;;;;;;3.13;1.40;;;22.20;81.40;;;;;;5069555;28;20110;-46
2021/08/02 09:15:34;;;;;;;4.72;1.65;;;21.50;84.80;;;;;;5068851;28;20036;-46
2021/08/02 09:18:01;;;;;;;2.88;1.00;;;20.70;85.70;;;;;;5069494;28;20034;-47
2021/08/02 09:20:28;;;;;;;3.45;1.13;;;20.40;88.80;;;;;;5068185;28;20363;-46
2021/08/02 09:23:02;;;;;;;7.30;1.40;;;20.00;89.70;;;;;;5069451;28;20024;-46
2021/08/02 09:25:28;;;;;;;6.90;1.55;;;20.00;90.30;;;;;;5068681;28;20560;-48
2021/08/02 09:27:53;;;;;;;4.47;1.45;;;19.90;90.80;;;;;;5068031;28;20024;-47
2021/08/02 09:30:25;;;;;;;3.38;1.50;;;19.70;91.10;;;;;;5068035;28;20383;-47
2021/08/02 09:33:03;;;;;;;5.53;1.63;;;19.80;91.50;;;;;;5069348;28;20036;-47
2021/08/02 09:35:41;;;;;;;6.80;1.48;;;20.00;91.50;;;;;;5068728;28;20039;-47
2021/08/02 09:38:12;;;;;;;3.88;1.20;;;20.40;91.30;;;;;;5069119;28;20024;-49
2021/08/02 09:40:43;;;;;;;4.68;1.17;;;22.10;90.80;;;;;;5069213;28;20017;-46
2021/08/02 09:43:14;;;;;;;2.55;1.25;;;23.20;88.10;;;;;;5069146;28;20029;-46
2021/08/02 09:45:41;;;;;;;3.45;1.35;;;24.90;79.20;;;;;;5069004;28;20107;-47
2021/08/02 09:48:07;;;;;;;5.03;1.42;;;26.70;77.30;;;;;;5069051;28;20255;-50
2021/08/02 09:50:33;;;;;;;4.80;1.25;;;28.50;75.00;;;;;;5069017;28;20429;-48
2021/08/02 09:52:59;;;;;;;3.35;1.20;;;29.10;64.40;;;;;;5069309;28;20033;-47
2021/08/02 09:55:26;;;;;;;6.60;1.20;;;28.50;64.10;;;;;;5068642;28;20035;-49
2021/08/02 09:57:55;;;;;;;2.75;1.33;;;27.40;60.70;;;;;;5069380;28;20031;-50
2021/08/02 10:00:21;;;;;;;3.03;1.15;;;26.20;63.00;;;;;;5069530;28;20020;-50
2021/08/02 10:02:48;;;;;;;5.05;1.38;;;25.40;67.40;;;;;;5069229;28;20417;-46
2021/08/02 10:05:15;;;;;;;4.47;1.17;;;24.50;67.70;;;;;;5068480;28;20035;-49
2021/08/02 10:07:43;;;;;;;4.15;1.65;;;24.10;68.60;;;;;;5069300;28;20112;-48
2021/08/02 10:10:10;;;;;;;3.83;1.10;;;23.70;69.10;;;;;;5069362;28;20436;-47
2021/08/02 10:12:46;;;;;;;3.55;1.27;;;23.30;70.30;;;;;;5068205;28;20645;-48
2021/08/02 10:15:21;;;;;;;5.88;1.33;;;23.00;69.00;;;;;;5068418;28;20025;-48
2021/08/02 10:17:49;;;;;;;3.58;1.10;;;22.70;70.30;;;;;;5069038;28;20028;-48
2021/08/02 10:20:22;;;;;;;2.30;1.00;;;22.40;70.60;;;;;;5068751;28;20123;-47
2021/08/02 10:22:48;;;;;;;2.53;1.23;;;22.10;72.60;;;;;;5067329;28;20390;-47
2021/08/02 10:25:14;;;;;;;4.63;1.10;;;21.70;73.10;;;;;;5067960;28;20033;-47
2021/08/02 10:27:39;;;;;;;2.70;1.15;;;23.20;71.00;;;;;;5068556;28;20521;-49
2021/08/02 10:30:25;;;;;;;2.65;1.10;;;24.60;66.50;;;;;;5068612;28;20021;-48
2021/08/02 10:32:53;;;;;;;3.45;1.30;;;26.40;63.50;;;;;;5068542;28;20040;-49
2021/08/02 10:35:58;;;;;;;5.30;1.20;;;25.80;61.20;;;;;;5067722;28;20029;-46
2021/08/02 10:38:24;;;;;;;1.60;1.33;;;25.20;63.10;;;;;;5053804;28;20032;-47
2021/08/02 10:40:52;;;;;;;3.28;1.20;;;24.90;64.70;;;;;;5068302;28;20025;-46
2021/08/02 10:43:37;;;;;;;6.70;1.20;;;24.30;63.80;;;;;;5067975;28;20163;-47
2021/08/02 10:46:19;;;;;;;5.22;2.17;;;23.90;67.40;;;;;;5068597;28;20596;-47
2021/08/02 10:48:46;;;;;;;2.95;1.70;;;23.80;67.70;;;;;;5068284;28;20182;-46
2021/08/02 10:51:18;;;;;;;4.10;1.00;;;23.70;68.40;;;;;;5068240;28;20044;-47
2021/08/02 10:53:56;;;;;;;3.78;1.20;;;23.70;69.80;;;;;;5067526;28;20051;-46
2021/08/02 10:56:32;;;;;;;6.32;1.42;;;24.10;69.30;;;;;;5068262;28;20024;-48
2021/08/02 10:58:59;;;;;;;4.18;1.30;;;24.00;69.30;;;;;;5066869;28;20509;-46
2021/08/02 11:01:26;;;;;;;4.30;1.33;;;23.90;68.70;;;;;;5068010;28;20031;-47
2021/08/02 11:03:54;;;;;;;6.65;1.77;;;23.60;69.40;;;;;;5067482;28;20028;-47
2021/08/02 11:06:20;;;;;;;3.03;1.17;;;23.20;70.70;;;;;;5068429;28;20063;-47
2021/08/02 11:08:59;;;;;;;3.33;1.70;;;23.10;72.20;;;;;;5068391;28;20081;-47
2021/08/02 11:11:30;;;;;;;3.15;1.33;;;23.00;70.00;;;;;;5066590;28;20486;-48
2021/08/02 11:14:08;;;;;;;2.25;1.20;;;22.60;71.00;;;;;;5067296;28;20033;-47
2021/08/02 11:16:45;;;;;;;3.47;1.30;;;22.30;71.20;;;;;;5066708;28;20029;-47
2021/08/02 11:19:43;;;;;;;5.28;1.45;;;22.20;71.40;;;;;;5067958;28;20056;-47
2021/08/02 11:22:09;;;;;;;3.70;1.48;;;22.30;72.40;;;;;;5044712;28;20029;-47
2021/08/02 11:24:38;;;;;;;5.78;1.25;;;22.30;73.20;;;;;;5071022;28;20113;-47
2021/08/02 11:27:12;;;;;;;4.03;1.25;;;22.20;74.40;;;;;;5071751;28;20029;-46
2021/08/02 11:29:58;;;;;;;4.15;1.25;;;22.00;74.50;;;;;;5072354;28;20025;-49
2021/08/02 11:32:23;;;;;;;5.22;1.30;;;22.10;74.40;;;;;;5071779;28;20127;-47
2021/08/02 11:34:55;;;;;;;5.65;1.60;;;22.00;73.30;;;;;;5069455;28;20434;-48
2021/08/02 11:37:23;;;;;;;7.35;1.35;;;21.90;75.00;;;;;;5071543;28;20206;-49
2021/08/02 11:40:04;;;;;;;5.25;1.20;;;21.90;75.70;;;;;;5071744;28;20382;-47
2021/08/02 11:42:31;;;;;;;4.55;1.40;;;21.60;75.10;;;;;;5071479;28;20541;-47
2021/08/02 11:44:59;;;;;;;2.42;1.50;;;21.60;75.60;;;;;;5071179;28;20470;-48
2021/08/02 11:47:28;;;;;;;6.63;1.38;;;21.50;74.20;;;;;;5071311;28;20032;-47
2021/08/02 11:49:55;;;;;;;2.38;1.30;;;21.50;73.80;;;;;;5071476;28;20020;-48
2021/08/02 11:52:23;;;;;;;3.35;1.10;;;21.60;75.30;;;;;;5071319;28;20363;-47
2021/08/02 11:55:07;;;;;;;3.55;1.20;;;21.80;74.40;;;;;;5070608;28;20398;-46
2021/08/02 11:57:33;;;;;;;5.13;1.38;;;22.10;73.60;;;;;;5071449;28;20044;-47
2021/08/02 11:59:59;;;;;;;1.63;0.95;;;22.40;72.60;;;;;;5071191;28;20063;-47
2021/08/02 12:02:38;;;;;;;5.50;0.95;;;23.30;73.10;;;;;;5071157;28;20100;-47
2021/08/02 12:05:06;;;;;;;5.30;1.17;;;23.60;69.40;;;;;;5070746;28;20029;-48
2021/08/02 12:07:32;;;;;;;5.93;1.33;;;23.60;69.20;;;;;;5071146;28;20040;-48
2021/08/02 12:10:18;;;;;;;6.00;1.55;;;24.00;70.10;;;;;;5071333;28;20074;-47
2021/08/02 12:12:56;;;;;;;3.38;1.15;;;23.90;69.70;;;;;;5071300;28;20374;-47
2021/08/02 12:15:21;;;;;;;2.22;1.10;;;23.90;69.40;;;;;;5068641;28;20032;-48
2021/08/02 12:17:52;;;;;;;9.07;1.20;;;23.60;69.70;;;;;;5071047;28;20355;-47
2021/08/02 12:20:32;;;;;;;3.58;0.93;;;23.20;67.00;;;;;;5070984;28;20028;-49
2021/08/02 12:22:58;;;;;;;4.28;1.17;;;23.00;69.70;;;;;;5069474;28;20028;-48
2021/08/02 12:25:35;;;;;;;5.20;1.13;;;23.20;68.70;;;;;;5070200;28;20448;-48
2021/08/02 12:28:00;;;;;;;2.92;1.17;;;23.60;68.80;;;;;;5070935;28;20036;-47
2021/08/02 12:30:27;;;;;;;1.95;1.08;;;24.30;70.10;;;;;;5070729;28;20024;-50
2021/08/02 12:32:52;;;;;;;2.28;1.15;;;24.90;67.60;;;;;;5070802;28;20025;-47
2021/08/02 12:35:18;;;;;;;6.13;1.30;;;24.70;64.20;;;;;;5069158;28;20029;-51
2021/08/02 12:37:45;;;;;;;1.70;0.90;;;24.70;66.70;;;;;;5070702;28;20478;-47
2021/08/02 12:40:16;;;;;;;2.53;1.00;;;24.70;65.10;;;;;;5070771;28;20017;-48
2021/08/02 12:42:45;;;;;;;2.20;0.95;;;24.90;65.00;;;;;;5070546;28;20047;-50
2021/08/02 12:45:12;;;;;;;6.43;1.10;;;25.10;66.10;;;;;;5069640;28;20448;-49
2021/08/02 12:47:38;;;;;;;1.38;1.00;;;24.90;64.60;;;;;;5070285;28;20052;-47
2021/08/02 12:50:05;;;;;;;7.50;1.17;;;24.20;63.80;;;;;;5070433;28;20060;-47
2021/08/02 12:52:32;;;;;;;5.95;1.10;;;23.60;65.30;;;;;;5070564;28;20082;-49